createdAt,value
2016-07-25T00:00:29.671Z,957.89
2016-07-25T00:02:29.725Z,957.81
2016-07-25T00:03:36.228Z,957.81
2016-07-25T00:05:34.405Z,957.79
2016-07-25T00:06:34.146Z,957.76
2016-07-25T00:07:34.729Z,957.76
2016-07-25T00:08:32.741Z,957.74
2016-07-25T00:09:30.607Z,957.73
2016-07-25T00:10:29.089Z,957.72
2016-07-25T00:11:24.618Z,957.74
2016-07-25T00:12:30.584Z,957.72
2016-07-25T00:13:19.203Z,957.67
2016-07-25T00:14:24.834Z,957.68
2016-07-25T00:15:25.896Z,957.67
2016-07-25T00:16:38.046Z,957.68
2016-07-25T00:17:33.814Z,957.69
2016-07-25T00:18:24.933Z,957.73
2016-07-25T00:19:37.907Z,957.70
2016-07-25T00:20:37.306Z,957.71
2016-07-25T00:21:28.777Z,957.70
2016-07-25T00:22:39.067Z,957.73
2016-07-25T00:23:25.153Z,957.72
2016-07-25T00:24:31.121Z,957.70
2016-07-25T00:26:37.287Z,957.68
2016-07-25T00:27:29.927Z,957.66
2016-07-25T00:30:34.621Z,957.67
2016-07-25T00:31:33.625Z,957.68
2016-07-25T00:32:34.190Z,957.69
2016-07-25T00:33:34.249Z,957.71
2016-07-25T00:34:31.131Z,957.71
2016-07-25T00:35:34.024Z,957.70
2016-07-25T00:36:28.067Z,957.65
2016-07-25T00:37:34.521Z,957.71
2016-07-25T00:38:33.633Z,957.72
2016-07-25T00:39:29.271Z,957.68
2016-07-25T00:40:34.620Z,957.70
2016-07-25T00:41:30.571Z,957.67
2016-07-25T00:42:32.702Z,957.64
2016-07-25T00:43:26.182Z,957.64
2016-07-25T00:44:25.207Z,957.59
2016-07-25T00:45:24.414Z,957.61
2016-07-25T00:46:18.436Z,957.63
2016-07-25T00:47:29.414Z,957.64
2016-07-25T00:48:26.677Z,957.61
2016-07-25T00:49:39.148Z,957.64
2016-07-25T00:50:36.463Z,957.58
2016-07-25T00:51:33.149Z,957.65
2016-07-25T00:52:28.527Z,957.61
2016-07-25T00:53:32.208Z,957.63
2016-07-25T00:54:34.373Z,957.59
2016-07-25T00:55:34.624Z,957.63
2016-07-25T00:56:19.023Z,957.60
2016-07-25T00:57:25.277Z,957.58
2016-07-25T00:58:27.195Z,957.58
2016-07-25T01:00:33.928Z,957.59
2016-07-25T01:01:24.161Z,957.60
2016-07-25T01:02:39.159Z,957.58
2016-07-25T01:03:29.216Z,957.61
2016-07-25T01:04:34.604Z,957.59
2016-07-25T01:05:34.613Z,957.63
2016-07-25T01:06:33.614Z,957.60
2016-07-25T01:07:26.689Z,957.59
2016-07-25T01:08:34.371Z,957.64
2016-07-25T01:09:29.358Z,957.61
2016-07-25T01:10:27.917Z,957.61
2016-07-25T01:11:23.150Z,957.60
2016-07-25T01:12:29.064Z,957.60
2016-07-25T01:13:19.975Z,957.62
2016-07-25T01:14:34.621Z,957.61
2016-07-25T01:15:12.895Z,957.63
2016-07-25T01:16:31.441Z,957.65
2016-07-25T01:17:39.610Z,957.66
2016-07-25T01:18:34.807Z,957.63
2016-07-25T01:19:38.979Z,957.62
2016-07-25T01:20:28.972Z,957.65
2016-07-25T01:21:28.623Z,957.62
2016-07-25T01:22:39.166Z,957.63
2016-07-25T01:23:39.444Z,957.65
2016-07-25T01:24:22.891Z,957.65
2016-07-25T01:26:34.615Z,957.68
2016-07-25T01:27:31.618Z,957.71
2016-07-25T01:28:25.599Z,957.71
2016-07-25T01:29:38.939Z,957.71
2016-07-25T01:30:38.390Z,957.69
2016-07-25T01:31:39.621Z,957.69
2016-07-25T01:32:39.466Z,957.70
2016-07-25T01:33:28.822Z,957.72
2016-07-25T01:34:35.134Z,957.66
2016-07-25T01:36:30.344Z,957.66
2016-07-25T01:37:17.572Z,957.67
2016-07-25T01:38:30.382Z,957.67
2016-07-25T01:39:20.145Z,957.63
2016-07-25T01:40:28.944Z,957.62
2016-07-25T01:41:26.083Z,957.62
2016-07-25T01:42:31.619Z,957.63
2016-07-25T01:43:25.310Z,957.60
2016-07-25T01:44:30.868Z,957.62
2016-07-25T01:45:37.004Z,957.66
2016-07-25T01:46:31.058Z,957.63
2016-07-25T01:47:33.865Z,957.64
2016-07-25T01:48:33.921Z,957.67
2016-07-25T01:49:34.820Z,957.64
2016-07-25T01:52:34.882Z,957.65
2016-07-25T01:53:29.044Z,957.64
2016-07-25T01:56:33.815Z,957.71
2016-07-25T01:57:28.961Z,957.71
2016-07-25T01:58:34.062Z,957.67
2016-07-25T01:59:34.313Z,957.66
2016-07-25T02:00:23.518Z,957.63
2016-07-25T02:01:42.782Z,957.69
2016-07-25T02:04:38.726Z,957.63
2016-07-25T02:05:39.841Z,957.58
2016-07-25T02:07:34.600Z,957.58
2016-07-25T02:08:25.483Z,957.53
2016-07-25T02:09:28.330Z,957.59
2016-07-25T02:10:28.796Z,957.56
2016-07-25T02:12:39.527Z,957.56
2016-07-25T02:13:38.988Z,957.57
2016-07-25T02:14:29.965Z,957.56
2016-07-25T02:15:29.504Z,957.55
2016-07-25T02:16:30.358Z,957.54
2016-07-25T02:17:29.229Z,957.58
2016-07-25T02:18:31.706Z,957.57
2016-07-25T02:19:30.011Z,957.57
2016-07-25T02:20:34.008Z,957.62
2016-07-25T02:22:37.118Z,957.62
2016-07-25T02:23:33.606Z,957.59
2016-07-25T02:24:30.849Z,957.61
2016-07-25T02:25:29.362Z,957.58
2016-07-25T02:26:34.453Z,957.56
2016-07-25T02:27:33.597Z,957.58
2016-07-25T02:28:43.111Z,957.55
2016-07-25T02:29:29.354Z,957.56
2016-07-25T02:30:25.861Z,957.54
2016-07-25T02:31:34.096Z,957.54
2016-07-25T02:32:25.166Z,957.54
2016-07-25T02:33:28.633Z,957.53
2016-07-25T02:34:23.452Z,957.51
2016-07-25T02:35:34.627Z,957.54
2016-07-25T02:36:28.651Z,957.54
2016-07-25T02:37:24.214Z,957.54
2016-07-25T02:38:34.587Z,957.56
2016-07-25T02:39:40.576Z,957.55
2016-07-25T02:40:29.389Z,957.54
2016-07-25T02:41:29.032Z,957.53
2016-07-25T02:42:34.097Z,957.56
2016-07-25T02:43:33.704Z,957.59
2016-07-25T02:44:26.212Z,957.57
2016-07-25T02:45:28.575Z,957.58
2016-07-25T02:46:42.363Z,957.53
2016-07-25T02:48:29.033Z,957.61
2016-07-25T02:49:34.036Z,957.62
2016-07-25T02:50:40.435Z,957.63
2016-07-25T02:51:28.968Z,957.60
2016-07-25T02:52:28.883Z,957.62
2016-07-25T02:53:34.461Z,957.63
2016-07-25T02:54:34.856Z,957.67
2016-07-25T02:55:33.434Z,957.62
2016-07-25T02:56:25.302Z,957.65
2016-07-25T02:58:32.728Z,957.61
2016-07-25T02:59:29.956Z,957.60
2016-07-25T03:00:23.853Z,957.61
2016-07-25T03:01:23.545Z,957.63
2016-07-25T03:02:29.972Z,957.59
2016-07-25T03:03:34.576Z,957.63
2016-07-25T03:04:29.957Z,957.64
2016-07-25T03:05:34.036Z,957.64
2016-07-25T03:06:34.980Z,957.70
2016-07-25T03:07:24.090Z,957.66
2016-07-25T03:08:43.139Z,957.66
2016-07-25T03:09:33.566Z,957.61
2016-07-25T03:10:34.012Z,957.61
2016-07-25T03:11:28.689Z,957.59
2016-07-25T03:12:33.893Z,957.61
2016-07-25T03:14:30.340Z,957.61
2016-07-25T03:15:34.199Z,957.60
2016-07-25T03:16:19.235Z,957.61
2016-07-25T03:17:35.202Z,957.59
2016-07-25T03:18:32.466Z,957.63
2016-07-25T03:19:38.316Z,957.59
2016-07-25T03:20:24.310Z,957.61
2016-07-25T03:21:34.279Z,957.59
2016-07-25T03:22:34.829Z,957.61
2016-07-25T03:23:29.832Z,957.56
2016-07-25T03:24:37.559Z,957.55
2016-07-25T03:25:29.681Z,957.54
2016-07-25T03:26:37.813Z,957.61
2016-07-25T03:27:29.700Z,957.54
2016-07-25T03:28:41.998Z,957.54
2016-07-25T03:29:28.558Z,957.53
2016-07-25T03:30:17.509Z,957.57
2016-07-25T03:31:34.309Z,957.52
2016-07-25T03:32:29.503Z,957.54
2016-07-25T03:34:25.071Z,957.58
2016-07-25T03:35:28.424Z,957.55
2016-07-25T03:36:28.546Z,957.53
2016-07-25T03:37:39.336Z,957.57
2016-07-25T03:38:19.679Z,957.61
2016-07-25T03:40:25.170Z,957.58
2016-07-25T03:42:38.519Z,957.58
2016-07-25T03:43:18.456Z,957.55
2016-07-25T03:44:34.931Z,957.55
2016-07-25T03:45:33.541Z,957.58
2016-07-25T03:46:19.844Z,957.58
2016-07-25T03:47:33.869Z,957.53
2016-07-25T03:48:42.994Z,957.58
2016-07-25T03:49:39.518Z,957.60
2016-07-25T03:50:12.435Z,957.56
2016-07-25T03:51:34.104Z,957.59
2016-07-25T03:52:26.788Z,957.62
2016-07-25T03:53:34.846Z,957.65
2016-07-25T03:54:34.015Z,957.60
2016-07-25T03:55:28.541Z,957.62
2016-07-25T03:56:29.023Z,957.62
2016-07-25T03:57:17.419Z,957.63
2016-07-25T03:58:35.001Z,957.65
2016-07-25T04:00:28.667Z,957.63
2016-07-25T04:01:25.803Z,957.66
2016-07-25T04:02:29.590Z,957.63
2016-07-25T04:03:28.446Z,957.63
2016-07-25T04:04:23.456Z,957.65
2016-07-25T04:05:30.005Z,957.65
2016-07-25T04:06:28.288Z,957.65
2016-07-25T04:07:13.638Z,957.65
2016-07-25T04:08:29.478Z,957.63
2016-07-25T04:09:25.251Z,957.61
2016-07-25T04:10:28.546Z,957.59
2016-07-25T04:11:23.416Z,957.62
2016-07-25T04:13:24.462Z,957.62
2016-07-25T04:15:18.117Z,957.64
2016-07-25T04:17:34.620Z,957.61
2016-07-25T04:18:22.055Z,957.61
2016-07-25T04:19:37.080Z,957.58
2016-07-25T04:20:38.334Z,957.56
2016-07-25T04:21:24.456Z,957.56
2016-07-25T04:22:35.027Z,957.56
2016-07-25T04:23:23.178Z,957.57
2016-07-25T04:24:34.017Z,957.59
2016-07-25T04:25:30.443Z,957.60
2016-07-25T04:26:30.264Z,957.65
2016-07-25T04:27:20.606Z,957.62
2016-07-25T04:28:29.871Z,957.67
2016-07-25T04:29:34.361Z,957.72
2016-07-25T04:30:22.893Z,957.67
2016-07-25T04:31:19.562Z,957.68
2016-07-25T04:33:25.118Z,957.72
2016-07-25T04:34:38.058Z,957.71
2016-07-25T04:35:23.368Z,957.75
2016-07-25T04:36:32.496Z,957.71
2016-07-25T04:37:24.971Z,957.75
2016-07-25T04:38:29.481Z,957.73
2016-07-25T04:39:23.631Z,957.69
2016-07-25T04:40:29.180Z,957.69
2016-07-25T04:41:23.993Z,957.72
2016-07-25T04:42:38.844Z,957.72
2016-07-25T04:43:26.417Z,957.68
2016-07-25T04:44:43.105Z,957.70
2016-07-25T04:45:18.543Z,957.75
2016-07-25T04:46:43.527Z,957.74
2016-07-25T04:47:34.106Z,957.77
2016-07-25T04:48:24.604Z,957.80
2016-07-25T04:49:40.566Z,957.77
2016-07-25T04:50:35.340Z,957.85
2016-07-25T04:51:28.692Z,957.90
2016-07-25T04:52:19.499Z,957.89
2016-07-25T04:53:43.623Z,957.90
2016-07-25T04:54:43.620Z,957.88
2016-07-25T04:55:20.793Z,957.89
2016-07-25T04:56:09.930Z,957.90
2016-07-25T04:57:33.681Z,957.93
2016-07-25T04:58:34.347Z,957.92
2016-07-25T04:59:33.934Z,957.93
2016-07-25T05:00:23.177Z,957.94
2016-07-25T05:01:27.379Z,957.92
2016-07-25T05:02:17.820Z,957.96
2016-07-25T05:03:36.766Z,957.93
2016-07-25T05:04:19.253Z,957.95
2016-07-25T05:05:34.501Z,957.99
2016-07-25T05:06:43.717Z,957.99
2016-07-25T05:07:37.108Z,958.02
2016-07-25T05:08:32.007Z,957.99
2016-07-25T05:09:22.893Z,957.98
2016-07-25T05:10:25.412Z,957.96
2016-07-25T05:11:18.435Z,957.95
2016-07-25T05:12:30.597Z,957.98
2016-07-25T05:13:17.875Z,957.95
2016-07-25T05:14:29.439Z,957.96
2016-07-25T05:15:34.011Z,957.96
2016-07-25T05:17:24.615Z,957.97
2016-07-25T05:18:29.534Z,957.97
2016-07-25T05:19:18.472Z,957.97
2016-07-25T05:20:18.475Z,957.93
2016-07-25T05:21:23.035Z,958.00
2016-07-25T05:22:42.403Z,958.02
2016-07-25T05:23:21.112Z,958.00
2016-07-25T05:24:33.610Z,958.01
2016-07-25T05:25:42.583Z,957.98
2016-07-25T05:26:18.094Z,958.03
2016-07-25T05:27:23.535Z,958.02
2016-07-25T05:28:32.500Z,958.01
2016-07-25T05:29:23.119Z,958.02
2016-07-25T05:30:19.271Z,958.01
2016-07-25T05:31:27.761Z,958.03
2016-07-25T05:32:22.770Z,958.04
2016-07-25T05:33:37.206Z,958.01
2016-07-25T05:35:17.868Z,957.99
2016-07-25T05:36:25.730Z,958.01
2016-07-25T05:38:17.864Z,957.95
2016-07-25T05:39:29.966Z,957.97
2016-07-25T05:41:23.789Z,957.94
2016-07-25T05:42:18.282Z,957.91
2016-07-25T05:43:38.861Z,957.91
2016-07-25T05:44:23.370Z,957.94
2016-07-25T05:45:24.609Z,957.91
2016-07-25T05:46:17.848Z,957.95
2016-07-25T05:47:18.336Z,957.90
2016-07-25T05:48:34.009Z,957.90
2016-07-25T05:49:17.364Z,957.93
2016-07-25T05:50:34.579Z,957.91
2016-07-25T05:51:33.921Z,957.90
2016-07-25T05:52:33.937Z,957.90
2016-07-25T05:53:17.650Z,957.89
2016-07-25T05:54:17.607Z,957.91
2016-07-25T05:55:33.720Z,957.97
2016-07-25T05:56:25.236Z,957.93
2016-07-25T05:57:34.568Z,957.96
2016-07-25T05:58:34.769Z,958.01
2016-07-25T05:59:24.107Z,957.99
2016-07-25T06:00:24.963Z,958.02
2016-07-25T06:01:22.863Z,957.97
2016-07-25T06:02:28.782Z,958.01
2016-07-25T06:03:19.613Z,958.03
2016-07-25T06:04:23.449Z,958.00
2016-07-25T06:05:19.118Z,958.03
2016-07-25T06:06:29.304Z,958.06
2016-07-25T06:07:20.280Z,958.08
2016-07-25T06:08:34.412Z,958.11
2016-07-25T06:09:34.347Z,958.10
2016-07-25T06:10:19.661Z,958.12
2016-07-25T06:11:23.138Z,958.12
2016-07-25T06:12:25.304Z,958.11
2016-07-25T06:13:22.937Z,958.16
2016-07-25T06:14:35.099Z,958.17
2016-07-25T06:15:23.117Z,958.17
2016-07-25T06:16:29.165Z,958.19
2016-07-25T06:17:23.690Z,958.19
2016-07-25T06:19:25.179Z,958.24
2016-07-25T06:20:19.706Z,958.22
2016-07-25T06:21:25.674Z,958.23
2016-07-25T06:22:20.385Z,958.24
2016-07-25T06:24:29.624Z,958.24
2016-07-25T06:25:27.451Z,958.27
2016-07-25T06:26:39.148Z,958.26
2016-07-25T06:27:28.493Z,958.32
2016-07-25T06:28:19.856Z,958.27
2016-07-25T06:29:24.377Z,958.31
2016-07-25T06:30:34.899Z,958.32
2016-07-25T06:32:26.534Z,958.33
2016-07-25T06:33:34.621Z,958.32
2016-07-25T06:34:32.761Z,958.34
2016-07-25T06:35:29.621Z,958.31
2016-07-25T06:36:29.065Z,958.34
2016-07-25T06:37:35.246Z,958.35
2016-07-25T06:38:33.902Z,958.37
2016-07-25T06:39:23.034Z,958.35
2016-07-25T06:40:31.196Z,958.39
2016-07-25T06:41:33.861Z,958.40
2016-07-25T06:42:24.974Z,958.40
2016-07-25T06:43:43.619Z,958.39
2016-07-25T06:45:39.249Z,958.43
2016-07-25T06:46:35.015Z,958.41
2016-07-25T06:47:25.493Z,958.44
2016-07-25T06:48:30.257Z,958.46
2016-07-25T06:49:34.248Z,958.48
2016-07-25T06:50:38.739Z,958.44
2016-07-25T06:51:29.742Z,958.44
2016-07-25T06:52:27.677Z,958.49
2016-07-25T06:53:34.117Z,958.49
2016-07-25T06:54:34.485Z,958.56
2016-07-25T06:55:29.870Z,958.52
2016-07-25T06:56:28.864Z,958.54
2016-07-25T06:57:28.910Z,958.49
2016-07-25T06:58:17.116Z,958.54
2016-07-25T06:59:23.852Z,958.56
2016-07-25T07:00:27.718Z,958.53
2016-07-25T07:01:34.236Z,958.53
2016-07-25T07:02:42.968Z,958.54
2016-07-25T07:03:34.279Z,958.51
2016-07-25T07:04:27.360Z,958.53
2016-07-25T07:06:19.971Z,958.56
2016-07-25T07:07:29.316Z,958.56
2016-07-25T07:08:30.803Z,958.56
2016-07-25T07:09:29.346Z,958.52
2016-07-25T07:10:33.979Z,958.57
2016-07-25T07:12:33.871Z,958.56
2016-07-25T07:13:39.587Z,958.54
2016-07-25T07:14:24.405Z,958.54
2016-07-25T07:15:39.111Z,958.55
2016-07-25T07:16:34.434Z,958.53
2016-07-25T07:17:29.393Z,958.54
2016-07-25T07:18:18.974Z,958.57
2016-07-25T07:19:32.129Z,958.56
2016-07-25T07:20:18.388Z,958.56
2016-07-25T07:21:32.582Z,958.56
2016-07-25T07:22:18.784Z,958.55
2016-07-25T07:23:24.697Z,958.55
2016-07-25T07:24:29.045Z,958.53
2016-07-25T07:25:38.010Z,958.58
2016-07-25T07:26:21.215Z,958.50
2016-07-25T07:27:20.743Z,958.53
2016-07-25T07:28:29.745Z,958.52
2016-07-25T07:29:18.287Z,958.53
2016-07-25T07:30:30.004Z,958.56
2016-07-25T07:31:34.040Z,958.53
2016-07-25T07:32:38.039Z,958.51
2016-07-25T07:33:33.881Z,958.55
2016-07-25T07:34:17.783Z,958.53
2016-07-25T07:35:42.557Z,958.56
2016-07-25T07:36:34.586Z,958.53
2016-07-25T07:37:29.618Z,958.58
2016-07-25T07:38:35.068Z,958.58
2016-07-25T07:39:34.610Z,958.55
2016-07-25T07:40:25.473Z,958.52
2016-07-25T07:41:28.895Z,958.52
2016-07-25T07:42:33.386Z,958.49
2016-07-25T07:43:33.500Z,958.52
2016-07-25T07:44:42.044Z,958.51
2016-07-25T07:45:34.517Z,958.47
2016-07-25T07:46:34.586Z,958.51
2016-07-25T07:47:34.341Z,958.51
2016-07-25T07:48:36.296Z,958.51
2016-07-25T07:49:28.124Z,958.51
2016-07-25T07:50:28.563Z,958.47
2016-07-25T07:51:34.051Z,958.49
2016-07-25T07:52:23.047Z,958.51
2016-07-25T07:53:19.506Z,958.47
2016-07-25T07:54:33.869Z,958.48
2016-07-25T07:55:34.624Z,958.52
2016-07-25T07:56:26.497Z,958.49
2016-07-25T07:57:38.051Z,958.50
2016-07-25T07:59:31.834Z,958.51
2016-07-25T08:00:39.353Z,958.49
2016-07-25T08:01:33.616Z,958.47
2016-07-25T08:02:39.345Z,958.48
2016-07-25T08:03:42.057Z,958.53
2016-07-25T08:04:34.451Z,958.54
2016-07-25T08:05:34.009Z,958.54
2016-07-25T08:06:34.021Z,958.56
2016-07-25T08:08:34.417Z,958.56
2016-07-25T08:09:34.068Z,958.58
2016-07-25T08:10:23.853Z,958.60
2016-07-25T08:12:36.295Z,958.59
2016-07-25T08:13:33.362Z,958.59
2016-07-25T08:14:27.902Z,958.60
2016-07-25T08:15:30.436Z,958.58
2016-07-25T08:16:34.472Z,958.61
2016-07-25T08:17:19.532Z,958.59
2016-07-25T08:18:34.821Z,958.55
2016-07-25T08:19:34.347Z,958.60
2016-07-25T08:20:37.615Z,958.55
2016-07-25T08:23:26.546Z,958.53
2016-07-25T08:24:40.575Z,958.54
2016-07-25T08:25:33.856Z,958.53
2016-07-25T08:27:34.482Z,958.52
2016-07-25T08:28:33.455Z,958.54
2016-07-25T08:29:29.197Z,958.50
2016-07-25T08:30:37.086Z,958.51
2016-07-25T08:31:32.819Z,958.53
2016-07-25T08:32:29.968Z,958.50
2016-07-25T08:33:29.585Z,958.50
2016-07-25T08:34:23.412Z,958.47
2016-07-25T08:35:43.793Z,958.45
2016-07-25T08:36:42.557Z,958.43
2016-07-25T08:37:33.798Z,958.46
2016-07-25T08:38:39.616Z,958.43
2016-07-25T08:39:24.268Z,958.41
2016-07-25T08:40:34.381Z,958.41
2016-07-25T08:41:33.798Z,958.38
2016-07-25T08:42:37.217Z,958.42
2016-07-25T08:43:30.674Z,958.38
2016-07-25T08:44:40.187Z,958.35
2016-07-25T08:45:33.797Z,958.31
2016-07-25T08:47:34.347Z,958.33
2016-07-25T08:48:29.614Z,958.34
2016-07-25T08:49:28.201Z,958.30
2016-07-25T08:50:24.715Z,958.33
2016-07-25T08:51:37.791Z,958.30
2016-07-25T08:52:37.295Z,958.32
2016-07-25T08:53:20.579Z,958.29
2016-07-25T08:54:39.616Z,958.24
2016-07-25T08:55:29.645Z,958.25
2016-07-25T08:56:28.978Z,958.26
2016-07-25T08:57:30.854Z,958.25
2016-07-25T08:58:33.861Z,958.29
2016-07-25T08:59:34.619Z,958.28
2016-07-25T09:00:29.227Z,958.29
2016-07-25T09:01:35.006Z,958.25
2016-07-25T09:03:33.211Z,958.25
2016-07-25T09:04:28.683Z,958.29
2016-07-25T09:05:29.241Z,958.27
2016-07-25T09:06:44.493Z,958.26
2016-07-25T09:07:34.309Z,958.24
2016-07-25T09:08:34.617Z,958.27
2016-07-25T09:10:34.173Z,958.26
2016-07-25T09:11:28.641Z,958.25
2016-07-25T09:12:34.320Z,958.24
2016-07-25T09:13:29.544Z,958.28
2016-07-25T09:14:18.874Z,958.28
2016-07-25T09:15:29.514Z,958.26
2016-07-25T09:16:20.398Z,958.23
2016-07-25T09:17:18.494Z,958.20
2016-07-25T09:18:24.674Z,958.25
2016-07-25T09:20:28.167Z,958.20
2016-07-25T09:21:27.760Z,958.23
2016-07-25T09:22:33.595Z,958.21
2016-07-25T09:23:17.455Z,958.23
2016-07-25T09:25:34.868Z,958.16
2016-07-25T09:26:30.368Z,958.16
2016-07-25T09:28:35.212Z,958.17
2016-07-25T09:29:34.770Z,958.17
2016-07-25T09:30:39.519Z,958.17
2016-07-25T09:31:29.059Z,958.15
2016-07-25T09:32:21.991Z,958.16
2016-07-25T09:33:25.105Z,958.19
2016-07-25T09:35:34.722Z,958.17
2016-07-25T09:36:38.496Z,958.17
2016-07-25T09:37:33.852Z,958.15
2016-07-25T09:38:36.102Z,958.16
2016-07-25T09:39:24.917Z,958.19
2016-07-25T09:40:34.407Z,958.18
2016-07-25T09:41:33.900Z,958.17
2016-07-25T09:42:38.612Z,958.23
2016-07-25T09:43:33.169Z,958.23
2016-07-25T09:44:33.872Z,958.24
2016-07-25T09:46:42.220Z,958.27
2016-07-25T09:47:38.918Z,958.25
2016-07-25T09:48:33.433Z,958.23
2016-07-25T09:49:34.343Z,958.22
2016-07-25T09:50:36.991Z,958.21
2016-07-25T09:51:34.172Z,958.24
2016-07-25T09:52:34.929Z,958.20
2016-07-25T09:53:39.142Z,958.23
2016-07-25T09:54:34.436Z,958.20
2016-07-25T09:55:35.875Z,958.17
2016-07-25T09:56:20.198Z,958.16
2016-07-25T09:57:42.611Z,958.16
2016-07-25T09:58:32.833Z,958.16
2016-07-25T09:59:33.107Z,958.18
2016-07-25T10:00:37.767Z,958.20
2016-07-25T10:01:29.233Z,958.15
2016-07-25T10:02:39.622Z,958.19
2016-07-25T10:03:40.688Z,958.16
2016-07-25T10:04:37.254Z,958.15
2016-07-25T10:05:30.613Z,958.11
2016-07-25T10:06:33.620Z,958.12
2016-07-25T10:07:33.488Z,958.14
2016-07-25T10:08:24.845Z,958.09
2016-07-25T10:09:42.440Z,958.11
2016-07-25T10:10:23.279Z,958.10
2016-07-25T10:11:25.385Z,958.09
2016-07-25T10:12:37.942Z,958.11
2016-07-25T10:13:38.453Z,958.12
2016-07-25T10:14:18.011Z,958.11
2016-07-25T10:15:36.948Z,958.09
2016-07-25T10:16:36.491Z,958.09
2016-07-25T10:17:39.841Z,958.05
2016-07-25T10:18:35.339Z,958.10
2016-07-25T10:19:17.963Z,958.11
2016-07-25T10:21:24.813Z,958.17
2016-07-25T10:22:32.958Z,958.12
2016-07-25T10:24:29.830Z,958.08
2016-07-25T10:25:33.676Z,958.09
2016-07-25T10:26:30.554Z,958.03
2016-07-25T10:27:30.145Z,958.02
2016-07-25T10:29:29.785Z,957.99
2016-07-25T10:30:23.045Z,958.02
2016-07-25T10:31:19.832Z,958.01
2016-07-25T10:32:35.428Z,957.98
2016-07-25T10:33:34.608Z,958.01
2016-07-25T10:34:35.110Z,957.98
2016-07-25T10:35:35.618Z,957.98
2016-07-25T10:36:33.599Z,957.97
2016-07-25T10:37:37.975Z,957.91
2016-07-25T10:38:23.686Z,957.95
2016-07-25T10:39:30.293Z,957.92
2016-07-25T10:40:32.928Z,957.89
2016-07-25T10:41:35.466Z,957.90
2016-07-25T10:42:34.448Z,957.89
2016-07-25T10:43:34.387Z,957.93
2016-07-25T10:44:26.975Z,957.95
2016-07-25T10:45:29.079Z,957.91
2016-07-25T10:46:39.009Z,957.94
2016-07-25T10:48:29.746Z,957.96
2016-07-25T10:49:29.930Z,957.94
2016-07-25T10:50:25.115Z,957.91
2016-07-25T10:51:34.727Z,957.91
2016-07-25T10:52:30.613Z,957.86
2016-07-25T10:53:17.831Z,957.89
2016-07-25T10:54:33.103Z,957.90
2016-07-25T10:55:27.422Z,957.84
2016-07-25T10:56:36.735Z,957.88
2016-07-25T10:57:28.996Z,957.82
2016-07-25T10:59:30.895Z,957.83
2016-07-25T11:00:30.711Z,957.83
2016-07-25T11:01:34.612Z,957.87
2016-07-25T11:02:20.291Z,957.81
2016-07-25T11:03:34.616Z,957.85
2016-07-25T11:04:35.002Z,957.81
2016-07-25T11:05:28.518Z,957.83
2016-07-25T11:06:34.323Z,957.82
2016-07-25T11:07:36.383Z,957.82
2016-07-25T11:08:17.454Z,957.81
2016-07-25T11:09:38.855Z,957.78
2016-07-25T11:10:34.546Z,957.74
2016-07-25T11:11:17.869Z,957.78
2016-07-25T11:13:34.035Z,957.81
2016-07-25T11:14:28.597Z,957.83
2016-07-25T11:15:33.627Z,957.77
2016-07-25T11:16:35.271Z,957.79
2016-07-25T11:17:34.276Z,957.82
2016-07-25T11:18:24.255Z,957.77
2016-07-25T11:19:30.056Z,957.78
2016-07-25T11:20:33.971Z,957.77
2016-07-25T11:22:33.768Z,957.74
2016-07-25T11:23:29.104Z,957.71
2016-07-25T11:24:35.389Z,957.68
2016-07-25T11:25:33.472Z,957.70
2016-07-25T11:26:33.590Z,957.71
2016-07-25T11:27:33.630Z,957.68
2016-07-25T11:28:29.230Z,957.70
2016-07-25T11:30:21.797Z,957.74
2016-07-25T11:31:15.907Z,957.68
2016-07-25T11:32:18.139Z,957.69
2016-07-25T11:33:35.050Z,957.64
2016-07-25T11:34:34.443Z,957.64
2016-07-25T11:35:34.043Z,957.65
2016-07-25T11:36:18.692Z,957.66
2016-07-25T11:37:30.107Z,957.65
2016-07-25T11:38:26.321Z,957.62
2016-07-25T11:39:35.062Z,957.62
2016-07-25T11:40:28.576Z,957.63
2016-07-25T11:41:29.063Z,957.60
2016-07-25T11:42:28.532Z,957.63
2016-07-25T11:43:29.539Z,957.61
2016-07-25T11:48:34.610Z,957.54
2016-07-25T11:50:18.463Z,957.60
2016-07-25T11:51:38.753Z,957.58
2016-07-25T11:52:29.361Z,957.61
2016-07-25T11:53:30.370Z,957.59
2016-07-25T11:54:33.997Z,957.55
2016-07-25T11:55:34.783Z,957.56
2016-07-25T11:56:29.010Z,957.55
2016-07-25T11:57:27.079Z,957.52
2016-07-25T11:58:30.357Z,957.53
2016-07-25T12:01:24.019Z,957.49
2016-07-25T12:02:20.092Z,957.46
2016-07-25T12:03:32.629Z,957.46
2016-07-25T12:04:34.967Z,957.48
2016-07-25T12:06:35.011Z,957.45
2016-07-25T12:07:34.749Z,957.46
2016-07-25T12:08:34.617Z,957.42
2016-07-25T12:09:35.003Z,957.46
2016-07-25T12:11:30.203Z,957.45
2016-07-25T12:13:40.495Z,957.46
2016-07-25T12:14:32.831Z,957.45
2016-07-25T12:16:28.520Z,957.42
2016-07-25T12:17:30.103Z,957.37
2016-07-25T12:18:24.338Z,957.38
2016-07-25T12:19:34.058Z,957.35
2016-07-25T12:21:30.408Z,957.27
2016-07-25T12:22:29.119Z,957.30
2016-07-25T12:23:34.612Z,957.31
2016-07-25T12:24:29.006Z,957.31
2016-07-25T12:25:41.785Z,957.30
2016-07-25T12:26:18.914Z,957.37
2016-07-25T12:27:29.272Z,957.31
2016-07-25T12:28:24.899Z,957.34
2016-07-25T12:30:22.848Z,957.35
2016-07-25T12:31:29.265Z,957.41
2016-07-25T12:32:36.033Z,957.36
2016-07-25T12:33:26.033Z,957.40
2016-07-25T12:34:50.783Z,957.38
2016-07-25T12:35:34.364Z,957.35
2016-07-25T12:36:22.972Z,957.40
2016-07-25T12:37:25.142Z,957.37
2016-07-25T12:38:44.457Z,957.37
2016-07-25T12:39:28.959Z,957.37
2016-07-25T12:40:38.036Z,957.36
2016-07-25T12:42:35.036Z,957.31
2016-07-25T12:43:40.035Z,957.38
2016-07-25T12:44:31.396Z,957.37
2016-07-25T12:45:19.151Z,957.31
2016-07-25T12:46:33.739Z,957.35
2016-07-25T12:47:30.345Z,957.36
2016-07-25T12:48:34.857Z,957.37
2016-07-25T12:49:22.872Z,957.37
2016-07-25T12:50:40.438Z,957.37
2016-07-25T12:51:23.809Z,957.30
2016-07-25T12:52:23.674Z,957.33
2016-07-25T12:53:20.462Z,957.32
2016-07-25T12:54:35.010Z,957.36
2016-07-25T12:55:32.947Z,957.35
2016-07-25T12:56:29.042Z,957.32
2016-07-25T12:57:29.049Z,957.32
2016-07-25T12:58:18.383Z,957.32
2016-07-25T12:59:36.041Z,957.28
2016-07-25T13:00:18.025Z,957.25
2016-07-25T13:01:33.863Z,957.27
2016-07-25T13:02:31.507Z,957.28
2016-07-25T13:03:23.645Z,957.29
2016-07-25T13:04:37.973Z,957.31
2016-07-25T13:05:29.018Z,957.24
2016-07-25T13:06:40.056Z,957.28
2016-07-25T13:07:25.316Z,957.30
2016-07-25T13:08:24.696Z,957.28
2016-07-25T13:09:20.285Z,957.23
2016-07-25T13:10:30.188Z,957.23
2016-07-25T13:11:25.965Z,957.17
2016-07-25T13:12:29.332Z,957.19
2016-07-25T13:13:35.065Z,957.18
2016-07-25T13:14:29.003Z,957.17
2016-07-25T13:16:25.283Z,957.25
2016-07-25T13:17:34.823Z,957.21
2016-07-25T13:19:31.868Z,957.30
2016-07-25T13:20:34.914Z,957.26
2016-07-25T13:21:34.025Z,957.24
2016-07-25T13:22:34.000Z,957.25
2016-07-25T13:23:44.620Z,957.23
2016-07-25T13:24:29.059Z,957.20
2016-07-25T13:25:18.512Z,957.25
2016-07-25T13:26:35.793Z,957.19
2016-07-25T13:27:30.303Z,957.23
2016-07-25T13:28:39.027Z,957.20
2016-07-25T13:29:20.652Z,957.23
2016-07-25T13:30:24.068Z,957.21
2016-07-25T13:31:18.279Z,957.22
2016-07-25T13:32:24.548Z,957.21
2016-07-25T13:33:24.732Z,957.22
2016-07-25T13:34:17.916Z,957.20
2016-07-25T13:35:26.368Z,957.15
2016-07-25T13:36:23.295Z,957.21
2016-07-25T13:37:23.359Z,957.14
2016-07-25T13:38:18.424Z,957.21
2016-07-25T13:39:17.924Z,957.20
2016-07-25T13:40:34.637Z,957.21
2016-07-25T13:41:43.093Z,957.20
2016-07-25T13:42:23.375Z,957.20
2016-07-25T13:43:29.090Z,957.25
2016-07-25T13:44:14.691Z,957.20